sensor_id;sensor_type;location;lat;lon;timestamp;pressure;altitude;pressure_sealevel;temperature
67501;BMP180;54349;52.528;19.760;2023-10-08T00:01:22;100259.00;;;20.64
67501;BMP180;54349;52.528;19.760;2023-10-08T00:03:50;100254.80;;;20.50
67501;BMP180;54349;52.528;19.760;2023-10-08T00:06:21;100260.60;;;20.94
67501;BMP180;54349;52.528;19.760;2023-10-08T00:08:50;100259.60;;;21.40
67501;BMP180;54349;52.528;19.760;2023-10-08T00:11:19;100257.00;;;21.30
67501;BMP180;54349;52.528;19.760;2023-10-08T00:13:51;100256.60;;;20.90
67501;BMP180;54349;52.528;19.760;2023-10-08T00:16:23;100263.00;;;20.60
67501;BMP180;54349;52.528;19.760;2023-10-08T00:18:51;100265.40;;;20.30
67501;BMP180;54349;52.528;19.760;2023-10-08T00:21:21;100257.00;;;20.32
67501;BMP180;54349;52.528;19.760;2023-10-08T00:23:56;100255.40;;;20.84
67501;BMP180;54349;52.528;19.760;2023-10-08T00:26:29;100260.40;;;21.30
67501;BMP180;54349;52.528;19.760;2023-10-08T00:29:02;100239.00;;;21.40
67501;BMP180;54349;52.528;19.760;2023-10-08T00:31:50;100243.40;;;20.90
67501;BMP180;54349;52.528;19.760;2023-10-08T00:34:19;100247.20;;;20.60
67501;BMP180;54349;52.528;19.760;2023-10-08T00:36:48;100244.80;;;20.30
67501;BMP180;54349;52.528;19.760;2023-10-08T00:39:19;100246.60;;;20.30
67501;BMP180;54349;52.528;19.760;2023-10-08T00:41:52;100254.80;;;20.80
67501;BMP180;54349;52.528;19.760;2023-10-08T00:44:36;100283.00;;;21.30
67501;BMP180;54349;52.528;19.760;2023-10-08T00:47:20;100272.80;;;21.26
67501;BMP180;54349;52.528;19.760;2023-10-08T00:49:57;100269.00;;;20.84
67501;BMP180;54349;52.528;19.760;2023-10-08T00:52:37;100252.60;;;20.50
67501;BMP180;54349;52.528;19.760;2023-10-08T00:55:13;100253.80;;;20.22
67501;BMP180;54349;52.528;19.760;2023-10-08T00:57:59;100262.40;;;20.00
67501;BMP180;54349;52.528;19.760;2023-10-08T01:00:37;100268.60;;;19.80
67501;BMP180;54349;52.528;19.760;2023-10-08T01:03:10;100257.20;;;19.70
67501;BMP180;54349;52.528;19.760;2023-10-08T01:05:46;100236.40;;;20.28
67501;BMP180;54349;52.528;19.760;2023-10-08T01:08:17;100220.20;;;20.86
67501;BMP180;54349;52.528;19.760;2023-10-08T01:10:51;100234.40;;;21.20
67501;BMP180;54349;52.528;19.760;2023-10-08T01:13:30;100241.00;;;20.88
67501;BMP180;54349;52.528;19.760;2023-10-08T01:16:05;100248.20;;;20.50
67501;BMP180;54349;52.528;19.760;2023-10-08T01:18:37;100243.60;;;20.54
67501;BMP180;54349;52.528;19.760;2023-10-08T01:21:11;100249.80;;;21.00
67501;BMP180;54349;52.528;19.760;2023-10-08T01:24:03;100263.00;;;21.48
67501;BMP180;54349;52.528;19.760;2023-10-08T01:26:36;100276.20;;;21.26
67501;BMP180;54349;52.528;19.760;2023-10-08T01:29:11;100283.00;;;20.90
67501;BMP180;54349;52.528;19.760;2023-10-08T01:31:49;100277.20;;;21.24
67501;BMP180;54349;52.528;19.760;2023-10-08T01:34:18;100288.40;;;21.58
67501;BMP180;54349;52.528;19.760;2023-10-08T01:36:56;100287.00;;;21.70
67501;BMP180;54349;52.528;19.760;2023-10-08T01:39:35;100290.00;;;21.32
67501;BMP180;54349;52.528;19.760;2023-10-08T01:42:04;100284.00;;;21.50
67501;BMP180;54349;52.528;19.760;2023-10-08T01:44:36;100286.20;;;21.70
67501;BMP180;54349;52.528;19.760;2023-10-08T01:47:05;100273.60;;;21.90
67501;BMP180;54349;52.528;19.760;2023-10-08T01:49:36;100269.00;;;21.92
67501;BMP180;54349;52.528;19.760;2023-10-08T01:52:10;100276.00;;;21.60
67501;BMP180;54349;52.528;19.760;2023-10-08T01:54:50;100297.00;;;21.74
67501;BMP180;54349;52.528;19.760;2023-10-08T01:57:22;100298.40;;;21.90
67501;BMP180;54349;52.528;19.760;2023-10-08T01:59:50;100292.20;;;22.10
67501;BMP180;54349;52.528;19.760;2023-10-08T02:02:20;100289.00;;;21.90
67501;BMP180;54349;52.528;19.760;2023-10-08T02:04:51;100283.40;;;21.60
67501;BMP180;54349;52.528;19.760;2023-10-08T02:07:20;100288.40;;;21.74
67501;BMP180;54349;52.528;19.760;2023-10-08T02:09:49;100299.80;;;21.90
67501;BMP180;54349;52.528;19.760;2023-10-08T02:12:17;100303.80;;;22.00
67501;BMP180;54349;52.528;19.760;2023-10-08T02:14:45;100317.00;;;22.00
67501;BMP180;54349;52.528;19.760;2023-10-08T02:17:13;100337.80;;;21.60
67501;BMP180;54349;52.528;19.760;2023-10-08T02:19:42;100340.40;;;21.70
67501;BMP180;54349;52.528;19.760;2023-10-08T02:22:12;100334.20;;;21.80
67501;BMP180;54349;52.528;19.760;2023-10-08T02:24:42;100346.80;;;21.90
67501;BMP180;54349;52.528;19.760;2023-10-08T02:27:14;100347.80;;;22.00
67501;BMP180;54349;52.528;19.760;2023-10-08T02:29:46;100337.40;;;22.00
67501;BMP180;54349;52.528;19.760;2023-10-08T02:32:14;100341.00;;;21.60
67501;BMP180;54349;52.528;19.760;2023-10-08T02:34:45;100340.20;;;21.60
67501;BMP180;54349;52.528;19.760;2023-10-08T02:37:15;100354.40;;;21.70
67501;BMP180;54349;52.528;19.760;2023-10-08T02:39:46;100353.80;;;21.80
67501;BMP180;54349;52.528;19.760;2023-10-08T02:42:16;100355.00;;;21.90
67501;BMP180;54349;52.528;19.760;2023-10-08T02:44:46;100367.40;;;22.00
67501;BMP180;54349;52.528;19.760;2023-10-08T02:47:15;100358.00;;;21.84
67501;BMP180;54349;52.528;19.760;2023-10-08T02:49:49;100360.80;;;21.50
67501;BMP180;54349;52.528;19.760;2023-10-08T02:52:19;100366.40;;;21.60
67501;BMP180;54349;52.528;19.760;2023-10-08T02:54:50;100363.60;;;21.68
67501;BMP180;54349;52.528;19.760;2023-10-08T02:57:21;100366.60;;;21.70
67501;BMP180;54349;52.528;19.760;2023-10-08T02:59:52;100377.60;;;21.80
67501;BMP180;54349;52.528;19.760;2023-10-08T03:02:23;100378.40;;;21.80
67501;BMP180;54349;52.528;19.760;2023-10-08T03:04:55;100384.60;;;21.80
67501;BMP180;54349;52.528;19.760;2023-10-08T03:07:25;100381.60;;;21.40
67501;BMP180;54349;52.528;19.760;2023-10-08T03:10:08;100381.00;;;21.38
67501;BMP180;54349;52.528;19.760;2023-10-08T03:12:56;100394.40;;;21.50
67501;BMP180;54349;52.528;19.760;2023-10-08T03:15:27;100394.80;;;21.50
67501;BMP180;54349;52.528;19.760;2023-10-08T03:18:01;100403.00;;;21.56
67501;BMP180;54349;52.528;19.760;2023-10-08T03:20:38;100413.60;;;21.60
67501;BMP180;54349;52.528;19.760;2023-10-08T03:23:16;100415.60;;;21.60
67501;BMP180;54349;52.528;19.760;2023-10-08T03:25:54;100416.00;;;21.68
67501;BMP180;54349;52.528;19.760;2023-10-08T03:28:38;100414.80;;;21.70
67501;BMP180;54349;52.528;19.760;2023-10-08T03:31:10;100419.60;;;21.70
67501;BMP180;54349;52.528;19.760;2023-10-08T03:33:46;100422.60;;;21.70
67501;BMP180;54349;52.528;19.760;2023-10-08T03:36:21;100432.00;;;21.44
67501;BMP180;54349;52.528;19.760;2023-10-08T03:38:51;100435.60;;;21.10
67501;BMP180;54349;52.528;19.760;2023-10-08T03:41:24;100445.60;;;21.20
67501;BMP180;54349;52.528;19.760;2023-10-08T03:43:57;100444.20;;;21.20
67501;BMP180;54349;52.528;19.760;2023-10-08T03:46:41;100455.80;;;21.30
67501;BMP180;54349;52.528;19.760;2023-10-08T03:49:15;100461.20;;;21.30
67501;BMP180;54349;52.528;19.760;2023-10-08T03:51:53;100465.20;;;21.40
67501;BMP180;54349;52.528;19.760;2023-10-08T03:54:25;100471.20;;;21.40
67501;BMP180;54349;52.528;19.760;2023-10-08T03:57:03;100474.00;;;21.40
67501;BMP180;54349;52.528;19.760;2023-10-08T03:59:34;100479.20;;;21.40
67501;BMP180;54349;52.528;19.760;2023-10-08T04:02:09;100490.00;;;21.46
67501;BMP180;54349;52.528;19.760;2023-10-08T04:04:37;100488.80;;;21.40
67501;BMP180;54349;52.528;19.760;2023-10-08T04:07:26;100493.20;;;21.40
67501;BMP180;54349;52.528;19.760;2023-10-08T04:09:59;100502.40;;;21.40
67501;BMP180;54349;52.528;19.760;2023-10-08T04:12:50;100501.60;;;21.40
67501;BMP180;54349;52.528;19.760;2023-10-08T04:15:21;100501.20;;;21.40
67501;BMP180;54349;52.528;19.760;2023-10-08T04:17:52;100510.20;;;21.40
67501;BMP180;54349;52.528;19.760;2023-10-08T04:20:21;100512.20;;;21.40
67501;BMP180;54349;52.528;19.760;2023-10-08T04:23:05;100522.80;;;21.40
67501;BMP180;54349;52.528;19.760;2023-10-08T04:25:42;100525.60;;;21.40
67501;BMP180;54349;52.528;19.760;2023-10-08T04:28:12;100529.40;;;21.40
67501;BMP180;54349;52.528;19.760;2023-10-08T04:30:47;100533.40;;;21.40
67501;BMP180;54349;52.528;19.760;2023-10-08T04:33:16;100538.00;;;21.40
67501;BMP180;54349;52.528;19.760;2023-10-08T04:35:48;100544.20;;;21.40
67501;BMP180;54349;52.528;19.760;2023-10-08T04:38:25;100552.40;;;21.40
67501;BMP180;54349;52.528;19.760;2023-10-08T04:40:56;100551.20;;;21.40
67501;BMP180;54349;52.528;19.760;2023-10-08T04:43:30;100551.20;;;21.40
67501;BMP180;54349;52.528;19.760;2023-10-08T04:46:02;100550.60;;;21.40
67501;BMP180;54349;52.528;19.760;2023-10-08T04:48:46;100553.40;;;21.40
67501;BMP180;54349;52.528;19.760;2023-10-08T04:51:16;100565.00;;;21.36
67501;BMP180;54349;52.528;19.760;2023-10-08T04:53:47;100571.80;;;21.30
67501;BMP180;54349;52.528;19.760;2023-10-08T04:56:16;100572.80;;;21.30
67501;BMP180;54349;52.528;19.760;2023-10-08T04:58:47;100582.60;;;21.30
67501;BMP180;54349;52.528;19.760;2023-10-08T05:01:19;100579.60;;;20.90
67501;BMP180;54349;52.528;19.760;2023-10-08T05:03:58;100589.20;;;20.80
67501;BMP180;54349;52.528;19.760;2023-10-08T05:06:30;100599.00;;;20.80
67501;BMP180;54349;52.528;19.760;2023-10-08T05:09:09;100599.40;;;20.90
67501;BMP180;54349;52.528;19.760;2023-10-08T05:11:52;100600.20;;;20.90
67501;BMP180;54349;52.528;19.760;2023-10-08T05:14:26;100602.20;;;20.90
67501;BMP180;54349;52.528;19.760;2023-10-08T05:17:06;100602.60;;;20.90
67501;BMP180;54349;52.528;19.760;2023-10-08T05:19:41;100613.40;;;20.90
67501;BMP180;54349;52.528;19.760;2023-10-08T05:22:25;100616.60;;;21.00
67501;BMP180;54349;52.528;19.760;2023-10-08T05:25:02;100626.40;;;21.00
67501;BMP180;54349;52.528;19.760;2023-10-08T05:27:57;100633.80;;;21.00
67501;BMP180;54349;52.528;19.760;2023-10-08T05:30:30;100634.20;;;21.00
67501;BMP180;54349;52.528;19.760;2023-10-08T05:33:27;100646.00;;;21.00
67501;BMP180;54349;52.528;19.760;2023-10-08T05:36:18;100648.20;;;21.00
67501;BMP180;54349;52.528;19.760;2023-10-08T05:38:55;100656.60;;;21.00
67501;BMP180;54349;52.528;19.760;2023-10-08T05:41:33;100655.80;;;21.00
67501;BMP180;54349;52.528;19.760;2023-10-08T05:44:20;100661.80;;;21.04
67501;BMP180;54349;52.528;19.760;2023-10-08T05:46:49;100674.20;;;21.02
67501;BMP180;54349;52.528;19.760;2023-10-08T05:49:24;100680.80;;;21.00
67501;BMP180;54349;52.528;19.760;2023-10-08T05:52:00;100681.40;;;21.00
67501;BMP180;54349;52.528;19.760;2023-10-08T05:54:33;100691.60;;;21.00
67501;BMP180;54349;52.528;19.760;2023-10-08T05:57:07;100693.00;;;21.00
67501;BMP180;54349;52.528;19.760;2023-10-08T05:59:44;100706.40;;;21.00
67501;BMP180;54349;52.528;19.760;2023-10-08T06:02:32;100710.20;;;21.00
67501;BMP180;54349;52.528;19.760;2023-10-08T06:05:09;100713.80;;;20.90
67501;BMP180;54349;52.528;19.760;2023-10-08T06:07:53;100717.00;;;20.90
67501;BMP180;54349;52.528;19.760;2023-10-08T06:10:29;100725.20;;;20.90
67501;BMP180;54349;52.528;19.760;2023-10-08T06:15:51;100736.20;;;20.90
67501;BMP180;54349;52.528;19.760;2023-10-08T06:18:34;100738.40;;;20.90
67501;BMP180;54349;52.528;19.760;2023-10-08T06:21:05;100741.80;;;20.90
67501;BMP180;54349;52.528;19.760;2023-10-08T06:23:40;100746.00;;;20.90
67501;BMP180;54349;52.528;19.760;2023-10-08T06:26:10;100741.00;;;20.90
67501;BMP180;54349;52.528;19.760;2023-10-08T06:28:41;100747.40;;;20.90
67501;BMP180;54349;52.528;19.760;2023-10-08T06:31:11;100754.00;;;20.90
67501;BMP180;54349;52.528;19.760;2023-10-08T06:33:42;100761.20;;;20.90
67501;BMP180;54349;52.528;19.760;2023-10-08T06:36:11;100761.00;;;20.90
67501;BMP180;54349;52.528;19.760;2023-10-08T06:38:45;100772.60;;;20.90
67501;BMP180;54349;52.528;19.760;2023-10-08T06:41:17;100776.40;;;20.90
67501;BMP180;54349;52.528;19.760;2023-10-08T06:44:18;100786.60;;;20.90
67501;BMP180;54349;52.528;19.760;2023-10-08T06:46:46;100789.00;;;20.90
67501;BMP180;54349;52.528;19.760;2023-10-08T06:49:16;100794.00;;;20.90
67501;BMP180;54349;52.528;19.760;2023-10-08T06:51:47;100798.20;;;20.90
67501;BMP180;54349;52.528;19.760;2023-10-08T06:54:17;100804.60;;;20.90
67501;BMP180;54349;52.528;19.760;2023-10-08T06:56:46;100811.20;;;20.90
67501;BMP180;54349;52.528;19.760;2023-10-08T06:59:20;100814.40;;;20.90
67501;BMP180;54349;52.528;19.760;2023-10-08T07:01:53;100822.80;;;20.90
67501;BMP180;54349;52.528;19.760;2023-10-08T07:04:21;100828.60;;;20.90
67501;BMP180;54349;52.528;19.760;2023-10-08T07:06:52;100838.20;;;20.90
67501;BMP180;54349;52.528;19.760;2023-10-08T07:09:22;100846.40;;;20.90
67501;BMP180;54349;52.528;19.760;2023-10-08T07:11:54;100852.00;;;20.90
67501;BMP180;54349;52.528;19.760;2023-10-08T07:14:28;100860.60;;;20.90
67501;BMP180;54349;52.528;19.760;2023-10-08T07:16:59;100867.00;;;20.90
67501;BMP180;54349;52.528;19.760;2023-10-08T07:19:31;100866.60;;;20.86
67501;BMP180;54349;52.528;19.760;2023-10-08T07:22:09;100883.80;;;20.80
67501;BMP180;54349;52.528;19.760;2023-10-08T07:24:51;100881.60;;;20.80
67501;BMP180;54349;52.528;19.760;2023-10-08T07:27:21;100883.20;;;20.80
67501;BMP180;54349;52.528;19.760;2023-10-08T07:29:50;100881.60;;;20.80
67501;BMP180;54349;52.528;19.760;2023-10-08T07:32:18;100883.80;;;20.72
67501;BMP180;54349;52.528;19.760;2023-10-08T07:34:47;100890.80;;;20.70
67501;BMP180;54349;52.528;19.760;2023-10-08T07:37:16;100894.20;;;20.70
67501;BMP180;54349;52.528;19.760;2023-10-08T07:39:44;100897.60;;;20.70
67501;BMP180;54349;52.528;19.760;2023-10-08T07:42:15;100897.80;;;20.70
67501;BMP180;54349;52.528;19.760;2023-10-08T07:44:43;100890.60;;;20.70
67501;BMP180;54349;52.528;19.760;2023-10-08T07:47:12;100897.20;;;20.70
67501;BMP180;54349;52.528;19.760;2023-10-08T07:49:42;100896.20;;;20.70
67501;BMP180;54349;52.528;19.760;2023-10-08T07:52:12;100902.40;;;20.68
67501;BMP180;54349;52.528;19.760;2023-10-08T07:54:45;100918.60;;;20.70
67501;BMP180;54349;52.528;19.760;2023-10-08T07:57:13;100909.80;;;20.70
67501;BMP180;54349;52.528;19.760;2023-10-08T07:59:47;100909.40;;;20.70
67501;BMP180;54349;52.528;19.760;2023-10-08T08:02:17;100912.80;;;20.70
67501;BMP180;54349;52.528;19.760;2023-10-08T08:04:51;100908.80;;;20.70
67501;BMP180;54349;52.528;19.760;2023-10-08T08:07:21;100916.40;;;20.70
67501;BMP180;54349;52.528;19.760;2023-10-08T08:09:52;100915.20;;;20.70
67501;BMP180;54349;52.528;19.760;2023-10-08T08:12:28;100928.20;;;20.70
67501;BMP180;54349;52.528;19.760;2023-10-08T08:14:57;100916.80;;;20.70
67501;BMP180;54349;52.528;19.760;2023-10-08T08:17:25;100922.20;;;20.68
67501;BMP180;54349;52.528;19.760;2023-10-08T08:19:54;100922.40;;;20.60
67501;BMP180;54349;52.528;19.760;2023-10-08T08:22:23;100919.00;;;20.60
67501;BMP180;54349;52.528;19.760;2023-10-08T08:25:00;100915.00;;;20.60
67501;BMP180;54349;52.528;19.760;2023-10-08T08:27:46;100921.80;;;20.60
67501;BMP180;54349;52.528;19.760;2023-10-08T08:30:19;100922.40;;;20.60
67501;BMP180;54349;52.528;19.760;2023-10-08T08:32:49;100927.00;;;20.60
67501;BMP180;54349;52.528;19.760;2023-10-08T08:35:21;100926.80;;;20.56
67501;BMP180;54349;52.528;19.760;2023-10-08T08:37:49;100922.40;;;20.50
67501;BMP180;54349;52.528;19.760;2023-10-08T08:40:19;100922.60;;;20.50
67501;BMP180;54349;52.528;19.760;2023-10-08T08:42:51;100921.80;;;20.50
67501;BMP180;54349;52.528;19.760;2023-10-08T08:45:36;100926.60;;;20.50
67501;BMP180;54349;52.528;19.760;2023-10-08T08:48:09;100927.60;;;20.50
67501;BMP180;54349;52.528;19.760;2023-10-08T08:50:40;100929.40;;;20.50
67501;BMP180;54349;52.528;19.760;2023-10-08T08:53:09;100936.00;;;20.50
67501;BMP180;54349;52.528;19.760;2023-10-08T08:55:38;100932.00;;;20.50
67501;BMP180;54349;52.528;19.760;2023-10-08T08:58:07;100931.80;;;20.50
67501;BMP180;54349;52.528;19.760;2023-10-08T09:00:40;100954.00;;;20.50
67501;BMP180;54349;52.528;19.760;2023-10-08T09:03:10;100951.20;;;20.50
67501;BMP180;54349;52.528;19.760;2023-10-08T09:05:42;100953.60;;;20.50
67501;BMP180;54349;52.528;19.760;2023-10-08T09:08:18;100952.60;;;20.50
67501;BMP180;54349;52.528;19.760;2023-10-08T09:10:47;100958.40;;;20.50
67501;BMP180;54349;52.528;19.760;2023-10-08T09:13:25;100960.20;;;20.50
67501;BMP180;54349;52.528;19.760;2023-10-08T09:16:07;100960.20;;;20.50
67501;BMP180;54349;52.528;19.760;2023-10-08T09:18:36;100965.20;;;20.50
67501;BMP180;54349;52.528;19.760;2023-10-08T09:21:11;100963.60;;;20.50
67501;BMP180;54349;52.528;19.760;2023-10-08T09:23:43;100966.00;;;20.50
67501;BMP180;54349;52.528;19.760;2023-10-08T09:26:16;100961.60;;;20.60
67501;BMP180;54349;52.528;19.760;2023-10-08T09:28:46;100968.80;;;20.60
67501;BMP180;54349;52.528;19.760;2023-10-08T09:31:16;100973.80;;;20.60
67501;BMP180;54349;52.528;19.760;2023-10-08T09:33:56;100977.60;;;20.60
67501;BMP180;54349;52.528;19.760;2023-10-08T09:36:25;100978.00;;;20.70
67501;BMP180;54349;52.528;19.760;2023-10-08T09:39:03;100987.00;;;20.70
67501;BMP180;54349;52.528;19.760;2023-10-08T09:41:36;100982.60;;;20.78
67501;BMP180;54349;52.528;19.760;2023-10-08T09:44:07;100985.80;;;20.80
67501;BMP180;54349;52.528;19.760;2023-10-08T09:46:42;100990.20;;;20.80
67501;BMP180;54349;52.528;19.760;2023-10-08T09:49:14;100994.80;;;20.90
67501;BMP180;54349;52.528;19.760;2023-10-08T09:51:45;100999.60;;;20.90
67501;BMP180;54349;52.528;19.760;2023-10-08T09:54:31;100994.60;;;20.90
67501;BMP180;54349;52.528;19.760;2023-10-08T09:57:06;100992.60;;;20.90
67501;BMP180;54349;52.528;19.760;2023-10-08T09:59:37;100995.40;;;20.92
67501;BMP180;54349;52.528;19.760;2023-10-08T10:02:13;101001.20;;;21.00
67501;BMP180;54349;52.528;19.760;2023-10-08T10:04:44;101000.80;;;21.00
67501;BMP180;54349;52.528;19.760;2023-10-08T10:07:17;101000.40;;;21.00
67501;BMP180;54349;52.528;19.760;2023-10-08T10:09:51;100997.40;;;21.10
67501;BMP180;54349;52.528;19.760;2023-10-08T10:12:27;100997.40;;;21.10
67501;BMP180;54349;52.528;19.760;2023-10-08T10:14:57;101008.00;;;21.10
67501;BMP180;54349;52.528;19.760;2023-10-08T10:17:27;100997.60;;;21.16
67501;BMP180;54349;52.528;19.760;2023-10-08T10:20:13;101004.00;;;21.20
67501;BMP180;54349;52.528;19.760;2023-10-08T10:22:48;101007.20;;;21.20
67501;BMP180;54349;52.528;19.760;2023-10-08T10:25:34;101006.00;;;21.20
67501;BMP180;54349;52.528;19.760;2023-10-08T10:28:22;101006.00;;;21.30
67501;BMP180;54349;52.528;19.760;2023-10-08T10:30:51;101013.00;;;21.30
67501;BMP180;54349;52.528;19.760;2023-10-08T10:33:29;101012.20;;;21.32
67501;BMP180;54349;52.528;19.760;2023-10-08T10:36:01;101011.00;;;21.34
67501;BMP180;54349;52.528;19.760;2023-10-08T10:38:30;101013.00;;;21.40
67501;BMP180;54349;52.528;19.760;2023-10-08T10:41:03;101017.80;;;21.40
67501;BMP180;54349;52.528;19.760;2023-10-08T10:43:37;101021.60;;;21.40
67501;BMP180;54349;52.528;19.760;2023-10-08T10:46:08;101017.00;;;21.42
67501;BMP180;54349;52.528;19.760;2023-10-08T10:48:55;101011.00;;;21.48
67501;BMP180;54349;52.528;19.760;2023-10-08T10:51:49;101009.40;;;21.50
67501;BMP180;54349;52.528;19.760;2023-10-08T10:54:26;101007.60;;;21.50
67501;BMP180;54349;52.528;19.760;2023-10-08T10:57:06;101019.60;;;21.58
67501;BMP180;54349;52.528;19.760;2023-10-08T10:59:45;101014.80;;;21.60
67501;BMP180;54349;52.528;19.760;2023-10-08T11:02:21;101018.80;;;21.62
67501;BMP180;54349;52.528;19.760;2023-10-08T11:04:59;101017.80;;;21.70
67501;BMP180;54349;52.528;19.760;2023-10-08T11:07:36;101018.00;;;21.70
67501;BMP180;54349;52.528;19.760;2023-10-08T11:10:09;101021.80;;;21.78
67501;BMP180;54349;52.528;19.760;2023-10-08T11:12:44;101021.00;;;21.80
67501;BMP180;54349;52.528;19.760;2023-10-08T11:15:20;101026.40;;;21.80
67501;BMP180;54349;52.528;19.760;2023-10-08T11:17:51;101028.60;;;21.82
67501;BMP180;54349;52.528;19.760;2023-10-08T11:20:28;101029.80;;;21.90
67501;BMP180;54349;52.528;19.760;2023-10-08T11:22:57;101030.80;;;21.90
67501;BMP180;54349;52.528;19.760;2023-10-08T11:25:58;101043.00;;;21.94
67501;BMP180;54349;52.528;19.760;2023-10-08T11:28:38;101043.40;;;21.96
67501;BMP180;54349;52.528;19.760;2023-10-08T11:31:17;101036.00;;;22.00
67501;BMP180;54349;52.528;19.760;2023-10-08T11:33:49;101032.80;;;22.00
67501;BMP180;54349;52.528;19.760;2023-10-08T11:36:24;101034.60;;;22.00
67501;BMP180;54349;52.528;19.760;2023-10-08T11:39:11;101027.00;;;22.00
67501;BMP180;54349;52.528;19.760;2023-10-08T11:41:59;101040.00;;;22.10
67501;BMP180;54349;52.528;19.760;2023-10-08T11:44:52;101039.00;;;22.10
67501;BMP180;54349;52.528;19.760;2023-10-08T11:47:21;101045.20;;;22.10
67501;BMP180;54349;52.528;19.760;2023-10-08T11:49:50;101037.60;;;22.10
67501;BMP180;54349;52.528;19.760;2023-10-08T11:52:22;101044.00;;;22.16
67501;BMP180;54349;52.528;19.760;2023-10-08T11:54:51;101048.60;;;22.20
67501;BMP180;54349;52.528;19.760;2023-10-08T11:57:21;101048.60;;;22.20
67501;BMP180;54349;52.528;19.760;2023-10-08T11:59:51;101044.80;;;22.20
67501;BMP180;54349;52.528;19.760;2023-10-08T12:02:23;101050.00;;;22.20
67501;BMP180;54349;52.528;19.760;2023-10-08T12:04:52;101043.80;;;22.20
67501;BMP180;54349;52.528;19.760;2023-10-08T12:07:20;101047.40;;;22.24
67501;BMP180;54349;52.528;19.760;2023-10-08T12:09:51;101047.60;;;22.24
67501;BMP180;54349;52.528;19.760;2023-10-08T12:12:20;101042.00;;;22.28
67501;BMP180;54349;52.528;19.760;2023-10-08T12:14:51;101039.60;;;22.26
67501;BMP180;54349;52.528;19.760;2023-10-08T12:17:23;101048.20;;;22.30
67501;BMP180;54349;52.528;19.760;2023-10-08T12:20:07;101056.40;;;22.30
67501;BMP180;54349;52.528;19.760;2023-10-08T12:22:52;101048.20;;;22.30
67501;BMP180;54349;52.528;19.760;2023-10-08T12:25:20;101047.60;;;22.30
67501;BMP180;54349;52.528;19.760;2023-10-08T12:27:48;101056.80;;;22.30
67501;BMP180;54349;52.528;19.760;2023-10-08T12:30:18;101059.20;;;22.40
67501;BMP180;54349;52.528;19.760;2023-10-08T12:32:46;101051.40;;;22.40
67501;BMP180;54349;52.528;19.760;2023-10-08T12:35:15;101061.40;;;22.40
67501;BMP180;54349;52.528;19.760;2023-10-08T12:37:43;101055.00;;;22.48
67501;BMP180;54349;52.528;19.760;2023-10-08T12:40:12;101062.20;;;22.50
67501;BMP180;54349;52.528;19.760;2023-10-08T12:42:40;101073.40;;;22.50
67501;BMP180;54349;52.528;19.760;2023-10-08T12:45:12;101071.00;;;22.50
67501;BMP180;54349;52.528;19.760;2023-10-08T12:47:40;101076.80;;;22.50
67501;BMP180;54349;52.528;19.760;2023-10-08T12:50:10;101080.20;;;22.50
67501;BMP180;54349;52.528;19.760;2023-10-08T12:52:44;101073.80;;;22.50
67501;BMP180;54349;52.528;19.760;2023-10-08T12:55:23;101075.00;;;22.50
67501;BMP180;54349;52.528;19.760;2023-10-08T12:57:53;101079.20;;;22.46
67501;BMP180;54349;52.528;19.760;2023-10-08T13:00:32;101076.00;;;22.40
67501;BMP180;54349;52.528;19.760;2023-10-08T13:03:00;101066.80;;;22.40
67501;BMP180;54349;52.528;19.760;2023-10-08T13:05:33;101068.00;;;22.40
67501;BMP180;54349;52.528;19.760;2023-10-08T13:08:02;101071.40;;;22.40
67501;BMP180;54349;52.528;19.760;2023-10-08T13:10:37;101065.00;;;22.40
67501;BMP180;54349;52.528;19.760;2023-10-08T13:13:12;101059.20;;;22.40
67501;BMP180;54349;52.528;19.760;2023-10-08T13:15:41;101071.20;;;22.40
67501;BMP180;54349;52.528;19.760;2023-10-08T13:18:10;101065.40;;;22.40
67501;BMP180;54349;52.528;19.760;2023-10-08T13:20:38;101062.40;;;22.40
67501;BMP180;54349;52.528;19.760;2023-10-08T13:23:09;101065.00;;;22.40
67501;BMP180;54349;52.528;19.760;2023-10-08T13:25:38;101074.80;;;22.40
67501;BMP180;54349;52.528;19.760;2023-10-08T13:28:07;101079.80;;;22.40
67501;BMP180;54349;52.528;19.760;2023-10-08T13:30:37;101088.20;;;22.40
67501;BMP180;54349;52.528;19.760;2023-10-08T13:33:06;101083.00;;;22.40
67501;BMP180;54349;52.528;19.760;2023-10-08T13:35:37;101080.60;;;22.40
67501;BMP180;54349;52.528;19.760;2023-10-08T13:38:05;101075.80;;;22.30
67501;BMP180;54349;52.528;19.760;2023-10-08T13:40:38;101074.00;;;22.30
67501;BMP180;54349;52.528;19.760;2023-10-08T13:43:12;101080.80;;;22.30
67501;BMP180;54349;52.528;19.760;2023-10-08T13:45:40;101074.80;;;22.30
67501;BMP180;54349;52.528;19.760;2023-10-08T13:48:10;101074.60;;;22.30
67501;BMP180;54349;52.528;19.760;2023-10-08T13:50:42;101082.00;;;22.30
67501;BMP180;54349;52.528;19.760;2023-10-08T13:53:12;101084.80;;;22.28
67501;BMP180;54349;52.528;19.760;2023-10-08T13:55:41;101081.80;;;22.30
67501;BMP180;54349;52.528;19.760;2023-10-08T13:58:13;101082.60;;;22.30
67501;BMP180;54349;52.528;19.760;2023-10-08T14:00:41;101090.00;;;22.30
67501;BMP180;54349;52.528;19.760;2023-10-08T14:03:10;101088.00;;;22.30
67501;BMP180;54349;52.528;19.760;2023-10-08T14:05:40;101100.00;;;22.30
67501;BMP180;54349;52.528;19.760;2023-10-08T14:08:08;101104.80;;;22.28
67501;BMP180;54349;52.528;19.760;2023-10-08T14:10:45;101106.20;;;22.20
67501;BMP180;54349;52.528;19.760;2023-10-08T14:13:16;101115.40;;;22.20
67501;BMP180;54349;52.528;19.760;2023-10-08T14:15:47;101115.80;;;22.20
67501;BMP180;54349;52.528;19.760;2023-10-08T14:18:25;101113.20;;;22.10
67501;BMP180;54349;52.528;19.760;2023-10-08T14:20:57;101118.20;;;22.10
67501;BMP180;54349;52.528;19.760;2023-10-08T14:23:25;101115.40;;;22.10